createdAt,value
2023-05-19T00:00:34.469Z,11.80
2023-05-19T00:03:03.321Z,11.80
2023-05-19T00:05:31.985Z,11.80
2023-05-19T00:08:01.183Z,11.80
2023-05-19T00:10:31.786Z,11.80
2023-05-19T00:13:02.258Z,11.80
2023-05-19T00:15:30.942Z,11.70
2023-05-19T00:17:59.366Z,11.70
2023-05-19T00:20:27.353Z,11.70
2023-05-19T00:22:55.516Z,11.70
2023-05-19T00:25:23.669Z,11.60
2023-05-19T00:27:51.671Z,11.60
2023-05-19T00:30:22.842Z,11.60
2023-05-19T00:32:50.970Z,11.60
2023-05-19T00:35:19.056Z,11.60
2023-05-19T00:37:47.104Z,11.60
2023-05-19T00:40:15.272Z,11.60
2023-05-19T00:42:43.538Z,11.70
2023-05-19T00:45:11.893Z,11.70
2023-05-19T00:47:41.277Z,11.70
2023-05-19T00:50:09.972Z,11.70
2023-05-19T00:52:38.026Z,11.70
2023-05-19T00:55:08.120Z,11.70
2023-05-19T00:57:36.323Z,11.70
2023-05-19T01:00:05.727Z,11.70
2023-05-19T01:02:33.955Z,11.70
2023-05-19T01:05:03.821Z,11.70
2023-05-19T01:07:31.905Z,11.60
2023-05-19T01:09:59.966Z,11.60
2023-05-19T01:12:28.489Z,11.60
2023-05-19T01:14:57.146Z,11.60
2023-05-19T01:17:29.617Z,11.60
2023-05-19T01:20:11.031Z,11.60
2023-05-19T01:23:01.852Z,11.60
2023-05-19T01:26:01.913Z,11.60
2023-05-19T01:28:54.176Z,11.50
2023-05-19T01:31:24.874Z,11.50
2023-05-19T01:33:54.607Z,11.50
2023-05-19T01:36:24.172Z,11.40
2023-05-19T01:38:54.992Z,11.40
2023-05-19T01:41:24.051Z,11.40
2023-05-19T01:43:54.219Z,11.40
2023-05-19T01:46:24.241Z,11.40
2023-05-19T01:48:53.512Z,11.30
2023-05-19T01:51:21.513Z,11.30
2023-05-19T01:53:49.490Z,11.30
2023-05-19T01:56:25.114Z,11.30
2023-05-19T01:59:00.156Z,11.30
2023-05-19T02:01:35.151Z,11.30
2023-05-19T02:04:19.214Z,11.20
2023-05-19T02:06:56.156Z,11.20
2023-05-19T02:09:35.989Z,11.20
2023-05-19T02:12:12.115Z,11.20
2023-05-19T02:15:04.496Z,11.20
2023-05-19T02:17:37.169Z,11.10
2023-05-19T02:20:06.764Z,11.20
2023-05-19T02:22:34.822Z,11.20
2023-05-19T02:25:02.925Z,11.20
2023-05-19T02:27:30.978Z,11.20
2023-05-19T02:29:59.047Z,11.10
2023-05-19T02:32:27.076Z,11.10
2023-05-19T02:34:56.576Z,11.10
2023-05-19T02:37:25.256Z,11.10
2023-05-19T02:39:53.213Z,11.10
2023-05-19T02:42:21.256Z,11.10
2023-05-19T02:44:49.863Z,11.00
2023-05-19T02:47:17.878Z,11.00
2023-05-19T02:49:45.929Z,11.00
2023-05-19T02:52:15.347Z,11.00
2023-05-19T02:54:43.427Z,11.10
2023-05-19T02:57:12.106Z,11.00
2023-05-19T02:59:40.101Z,10.90
2023-05-19T03:02:08.182Z,10.90
2023-05-19T03:04:42.849Z,10.90
2023-05-19T03:07:13.259Z,10.90
2023-05-19T03:09:42.684Z,10.90
2023-05-19T03:12:10.690Z,10.80
2023-05-19T03:14:39.078Z,10.80
2023-05-19T03:17:08.615Z,10.80
2023-05-19T03:19:36.706Z,10.80
2023-05-19T03:22:05.011Z,10.80
2023-05-19T03:24:33.062Z,10.80
2023-05-19T03:27:02.519Z,10.80
2023-05-19T03:29:31.001Z,10.80
2023-05-19T03:31:59.770Z,10.80
2023-05-19T03:34:27.842Z,10.80
2023-05-19T03:36:55.835Z,10.80
2023-05-19T03:39:23.805Z,10.80
2023-05-19T03:41:51.798Z,10.70
2023-05-19T03:44:21.112Z,10.80
2023-05-19T03:46:49.113Z,10.80
2023-05-19T03:49:17.244Z,10.80
2023-05-19T03:51:46.173Z,10.70
2023-05-19T03:54:14.157Z,10.70
2023-05-19T03:56:44.692Z,10.80
2023-05-19T03:59:12.915Z,10.70
2023-05-19T04:01:42.338Z,10.80
2023-05-19T04:04:10.369Z,10.80
2023-05-19T04:06:38.380Z,10.80
2023-05-19T04:09:13.040Z,10.80
2023-05-19T04:11:41.224Z,10.80
2023-05-19T04:14:09.554Z,10.90
2023-05-19T04:16:37.712Z,10.90
2023-05-19T04:19:07.083Z,10.80
2023-05-19T04:21:36.182Z,10.90
2023-05-19T04:24:06.359Z,10.90
2023-05-19T04:26:34.597Z,11.00
2023-05-19T04:29:04.918Z,11.00
2023-05-19T04:31:34.444Z,11.10
2023-05-19T04:34:02.819Z,11.10
2023-05-19T04:36:34.032Z,11.10
2023-05-19T04:39:07.312Z,11.20
2023-05-19T04:41:35.374Z,11.20
2023-05-19T04:44:03.907Z,11.20
2023-05-19T04:46:32.250Z,11.30
2023-05-19T04:49:01.215Z,11.30
2023-05-19T04:51:31.448Z,11.40
2023-05-19T04:54:01.501Z,11.60
2023-05-19T04:56:30.089Z,11.70
2023-05-19T04:58:58.170Z,11.90
2023-05-19T05:01:26.556Z,12.10
2023-05-19T05:03:56.160Z,12.30
2023-05-19T05:06:24.212Z,12.70
2023-05-19T05:08:52.608Z,13.10
2023-05-19T05:11:22.595Z,13.70
2023-05-19T05:13:51.055Z,14.30
2023-05-19T05:16:19.559Z,14.80
2023-05-19T05:18:48.108Z,15.10
2023-05-19T05:21:16.717Z,15.30
2023-05-19T05:23:45.234Z,15.40
2023-05-19T05:26:19.594Z,15.70
2023-05-19T05:28:48.951Z,15.80
2023-05-19T05:31:17.260Z,15.90
2023-05-19T05:33:45.639Z,16.00
2023-05-19T05:36:13.705Z,16.00
2023-05-19T05:38:41.687Z,16.00
2023-05-19T05:41:09.697Z,16.00
2023-05-19T05:43:37.688Z,16.00
2023-05-19T05:46:07.393Z,16.10
2023-05-19T05:48:36.272Z,16.30
2023-05-19T05:51:04.822Z,16.50
2023-05-19T05:53:38.000Z,16.70
2023-05-19T05:56:06.713Z,17.00
2023-05-19T05:58:37.330Z,17.30
2023-05-19T06:01:10.331Z,17.70
2023-05-19T06:03:39.766Z,17.90
2023-05-19T06:06:08.086Z,18.10
2023-05-19T06:08:36.368Z,18.30
2023-05-19T06:11:08.394Z,18.50
2023-05-19T06:13:36.932Z,18.70
2023-05-19T06:16:07.068Z,19.00
2023-05-19T06:18:35.073Z,19.00
2023-05-19T06:21:03.298Z,18.80
2023-05-19T06:23:31.793Z,18.70
2023-05-19T06:25:59.787Z,18.60
2023-05-19T06:28:27.781Z,18.50
2023-05-19T06:30:55.808Z,18.60
2023-05-19T06:33:28.140Z,18.40
2023-05-19T06:35:57.050Z,18.20
2023-05-19T06:38:25.064Z,18.40
2023-05-19T06:40:53.018Z,18.30
2023-05-19T06:43:21.260Z,18.60
2023-05-19T06:45:49.259Z,18.40
2023-05-19T06:48:17.312Z,18.30
2023-05-19T06:50:46.677Z,18.30
2023-05-19T06:53:14.683Z,18.20
2023-05-19T06:55:54.808Z,18.00
2023-05-19T06:58:27.810Z,18.10
2023-05-19T07:00:55.871Z,17.90
2023-05-19T07:03:23.959Z,17.80
2023-05-19T07:05:53.510Z,17.30
2023-05-19T07:08:21.440Z,17.00
2023-05-19T07:10:49.453Z,17.10
2023-05-19T07:13:17.516Z,17.30
2023-05-19T07:15:45.652Z,17.70
2023-05-19T07:18:13.652Z,18.30
2023-05-19T07:20:41.748Z,18.50
2023-05-19T07:23:11.079Z,18.70
2023-05-19T07:25:39.170Z,18.90
2023-05-19T07:28:07.124Z,18.90
2023-05-19T07:30:35.151Z,19.20
2023-05-19T07:33:03.592Z,19.40
2023-05-19T07:35:31.715Z,19.70
2023-05-19T07:37:59.739Z,19.90
2023-05-19T07:40:29.050Z,19.70
2023-05-19T07:42:57.024Z,19.40
2023-05-19T07:45:24.998Z,18.80
2023-05-19T07:47:54.032Z,18.30
2023-05-19T07:50:22.313Z,17.80
2023-05-19T07:52:50.432Z,17.40
2023-05-19T07:55:19.196Z,16.90
2023-05-19T07:57:48.573Z,16.60
2023-05-19T08:00:17.743Z,16.50
2023-05-19T08:02:46.241Z,16.30
2023-05-19T08:05:14.313Z,16.00
2023-05-19T08:07:42.371Z,16.00
2023-05-19T08:10:10.600Z,16.00
2023-05-19T08:12:38.682Z,15.90
2023-05-19T08:15:11.709Z,15.90
2023-05-19T08:17:39.759Z,15.90
2023-05-19T08:20:10.200Z,15.70
2023-05-19T08:22:38.278Z,15.50
2023-05-19T08:25:07.436Z,15.40
2023-05-19T08:27:35.581Z,15.40
2023-05-19T08:30:03.613Z,15.30
2023-05-19T08:32:32.922Z,15.20
2023-05-19T08:35:00.945Z,15.10
2023-05-19T08:37:28.982Z,15.00
2023-05-19T08:39:57.187Z,14.90
2023-05-19T08:42:25.140Z,14.70
2023-05-19T08:44:53.168Z,14.80
2023-05-19T08:47:21.200Z,14.80
2023-05-19T08:49:54.320Z,14.80
2023-05-19T08:52:31.494Z,14.80
2023-05-19T08:55:05.004Z,14.90
2023-05-19T08:57:34.156Z,15.10
2023-05-19T09:00:06.130Z,15.20
2023-05-19T09:02:34.689Z,15.20
2023-05-19T09:05:04.875Z,15.30
2023-05-19T09:07:34.798Z,15.40
2023-05-19T09:10:03.732Z,15.40
2023-05-19T09:12:31.903Z,15.60
2023-05-19T09:15:04.650Z,15.70
2023-05-19T09:17:32.843Z,15.60
2023-05-19T09:20:06.772Z,15.60
2023-05-19T09:22:36.631Z,15.50
2023-05-19T09:25:04.804Z,15.40
2023-05-19T09:27:33.712Z,15.40
2023-05-19T09:30:10.384Z,15.40
2023-05-19T09:32:38.501Z,15.30
2023-05-19T09:35:09.275Z,15.40
2023-05-19T09:37:40.053Z,15.50
2023-05-19T09:40:11.371Z,15.60
2023-05-19T09:42:43.028Z,15.70
2023-05-19T09:45:11.491Z,15.80
2023-05-19T09:47:41.373Z,16.00
2023-05-19T09:50:12.640Z,16.10
2023-05-19T09:52:43.597Z,16.20
2023-05-19T09:55:13.317Z,16.30
2023-05-19T09:57:42.021Z,16.10
2023-05-19T10:00:15.397Z,16.00
2023-05-19T10:02:47.672Z,15.90
2023-05-19T10:05:20.253Z,15.90
2023-05-19T10:07:51.522Z,15.90
2023-05-19T10:10:20.949Z,15.70
2023-05-19T10:12:49.424Z,15.80
2023-05-19T10:15:20.558Z,15.90
2023-05-19T10:17:51.609Z,16.00
2023-05-19T10:20:21.086Z,16.10
2023-05-19T10:22:49.598Z,16.10
2023-05-19T10:25:19.822Z,16.20
2023-05-19T10:27:54.873Z,16.20
2023-05-19T10:30:29.697Z,16.40
2023-05-19T10:32:58.347Z,16.50
2023-05-19T10:35:45.155Z,16.70
2023-05-19T10:38:22.966Z,16.80
2023-05-19T10:41:02.035Z,16.60
2023-05-19T10:43:48.075Z,16.50
2023-05-19T10:46:16.349Z,16.60
2023-05-19T10:48:46.838Z,16.40
2023-05-19T10:51:17.384Z,16.30
2023-05-19T10:53:50.114Z,16.50
2023-05-19T10:56:33.715Z,16.60
2023-05-19T10:59:02.251Z,16.50
2023-05-19T11:01:33.509Z,16.40
2023-05-19T11:04:06.956Z,16.20
2023-05-19T11:06:38.061Z,16.10
2023-05-19T11:09:14.063Z,16.00
2023-05-19T11:11:47.768Z,16.00
2023-05-19T11:14:18.398Z,15.90
2023-05-19T11:16:48.977Z,15.90
2023-05-19T11:19:21.391Z,16.00
2023-05-19T11:21:52.423Z,15.90
2023-05-19T11:24:36.950Z,15.80
2023-05-19T11:27:28.130Z,15.80
2023-05-19T11:29:57.181Z,15.80
2023-05-19T11:32:28.469Z,15.70
2023-05-19T11:34:57.637Z,15.60
2023-05-19T11:37:28.702Z,15.40
2023-05-19T11:39:56.770Z,15.30
2023-05-19T11:42:25.094Z,15.30
2023-05-19T11:44:59.252Z,15.30
2023-05-19T11:47:28.175Z,15.30
2023-05-19T11:50:10.761Z,15.30
2023-05-19T11:52:45.673Z,15.40
2023-05-19T11:55:16.941Z,15.50
2023-05-19T11:58:02.950Z,15.60
2023-05-19T12:00:37.109Z,15.60
2023-05-19T12:03:06.066Z,15.70
2023-05-19T12:05:40.844Z,15.70
2023-05-19T12:08:11.702Z,15.60
2023-05-19T12:10:40.694Z,15.60
2023-05-19T12:13:10.140Z,15.60
2023-05-19T12:15:39.533Z,15.60
2023-05-19T12:18:08.445Z,15.60
2023-05-19T12:20:37.201Z,15.70
2023-05-19T12:23:05.727Z,15.70
2023-05-19T12:25:35.385Z,15.80
2023-05-19T12:28:04.491Z,15.80
2023-05-19T12:30:34.206Z,15.90
2023-05-19T12:33:04.053Z,15.90
2023-05-19T12:35:33.945Z,15.90
2023-05-19T12:38:05.213Z,15.90
2023-05-19T12:40:36.801Z,15.90
2023-05-19T12:43:05.498Z,15.80
2023-05-19T12:45:36.014Z,15.90
2023-05-19T12:48:05.808Z,15.90
2023-05-19T12:50:35.301Z,15.80
2023-05-19T12:53:03.498Z,15.80
2023-05-19T12:55:31.731Z,15.80
2023-05-19T12:58:06.633Z,15.80
2023-05-19T13:00:36.115Z,15.90
2023-05-19T13:03:06.691Z,15.90
2023-05-19T13:05:36.781Z,16.00
2023-05-19T13:08:08.659Z,16.10
2023-05-19T13:10:38.334Z,16.10
2023-05-19T13:13:09.279Z,16.00
2023-05-19T13:15:39.822Z,15.90
2023-05-19T13:18:09.607Z,15.90
2023-05-19T13:20:38.147Z,15.90
2023-05-19T13:23:06.752Z,15.80
2023-05-19T13:25:35.500Z,15.80
2023-05-19T13:28:05.835Z,15.70
2023-05-19T13:30:36.826Z,15.60
2023-05-19T13:33:05.379Z,15.30
2023-05-19T13:35:37.000Z,15.10
2023-05-19T13:38:05.756Z,15.00
2023-05-19T13:40:34.736Z,15.00
2023-05-19T13:43:03.282Z,15.00
2023-05-19T13:45:45.329Z,15.00
2023-05-19T13:48:13.391Z,15.00
2023-05-19T13:50:41.391Z,15.00
2023-05-19T13:53:11.503Z,15.00
2023-05-19T13:55:39.536Z,15.00
2023-05-19T13:58:07.713Z,15.00
2023-05-19T14:00:36.811Z,15.00
2023-05-19T14:03:06.935Z,14.90
2023-05-19T14:05:35.562Z,14.80
2023-05-19T14:08:05.082Z,14.80
2023-05-19T14:10:33.243Z,14.70
2023-05-19T14:15:34.524Z,14.70
2023-05-19T14:18:03.618Z,14.90
2023-05-19T14:20:34.315Z,14.90
2023-05-19T14:23:02.961Z,15.00
2023-05-19T14:25:30.894Z,15.00
2023-05-19T14:27:58.866Z,15.20
2023-05-19T14:30:26.869Z,15.30
2023-05-19T14:32:54.863Z,15.40
2023-05-19T14:35:23.566Z,15.40
2023-05-19T14:37:53.220Z,15.50
2023-05-19T14:40:21.175Z,15.50
2023-05-19T14:42:49.120Z,15.50
2023-05-19T14:45:17.160Z,15.50
2023-05-19T14:47:45.841Z,15.40
2023-05-19T14:50:14.943Z,15.40
2023-05-19T14:52:42.934Z,15.30
2023-05-19T14:55:12.362Z,15.20
2023-05-19T14:57:40.327Z,15.20
2023-05-19T15:00:10.273Z,15.10
2023-05-19T15:02:38.373Z,15.10
2023-05-19T15:05:07.001Z,14.90
2023-05-19T15:07:34.996Z,14.90
2023-05-19T15:10:03.090Z,14.90
2023-05-19T15:12:32.423Z,15.00
2023-05-19T15:15:00.979Z,15.00
2023-05-19T15:17:28.978Z,15.10
2023-05-19T15:19:56.987Z,15.10
2023-05-19T15:22:24.980Z,15.10
2023-05-19T15:24:52.985Z,15.10
2023-05-19T15:27:21.202Z,15.00
2023-05-19T15:29:50.578Z,15.00
2023-05-19T15:32:18.554Z,15.00
2023-05-19T15:34:47.517Z,15.00
2023-05-19T15:37:15.497Z,15.00
2023-05-19T15:39:43.673Z,15.00
2023-05-19T15:42:11.681Z,15.00
2023-05-19T15:44:39.634Z,14.90
2023-05-19T15:47:08.948Z,14.90
2023-05-19T15:49:36.907Z,14.90
2023-05-19T15:52:05.354Z,14.90
2023-05-19T15:54:33.339Z,14.90
2023-05-19T15:57:01.289Z,15.00
2023-05-19T15:59:29.249Z,15.00
2023-05-19T16:01:57.266Z,15.10
2023-05-19T16:04:26.592Z,15.20
2023-05-19T16:06:54.527Z,15.30
2023-05-19T16:09:22.524Z,15.30
2023-05-19T16:11:50.514Z,15.40
2023-05-19T16:14:18.507Z,15.40
2023-05-19T16:16:46.491Z,15.40
2023-05-19T16:19:14.537Z,15.40
2023-05-19T16:21:43.897Z,15.60
2023-05-19T16:24:11.839Z,15.60
2023-05-19T16:26:39.787Z,15.60
2023-05-19T16:29:07.738Z,15.70
2023-05-19T16:31:35.695Z,15.80
2023-05-19T16:34:03.736Z,15.90
2023-05-19T16:36:31.806Z,15.90
2023-05-19T16:39:01.139Z,15.90
2023-05-19T16:41:29.132Z,15.90
2023-05-19T16:43:57.083Z,15.90
2023-05-19T16:46:25.161Z,15.90
2023-05-19T16:48:53.170Z,15.90
2023-05-19T16:51:21.250Z,15.90
2023-05-19T16:53:49.188Z,15.90
2023-05-19T16:56:18.519Z,15.90
2023-05-19T16:58:46.530Z,15.90
2023-05-19T17:01:14.508Z,15.90
2023-05-19T17:03:42.501Z,15.80
2023-05-19T17:06:10.493Z,15.80
2023-05-19T17:08:38.460Z,15.80
2023-05-19T17:11:07.251Z,15.80
2023-05-19T17:13:37.123Z,15.70
2023-05-19T17:16:05.246Z,15.70
2023-05-19T17:18:33.221Z,15.80
2023-05-19T17:21:03.556Z,15.80
2023-05-19T17:23:32.196Z,15.80
2023-05-19T17:26:00.192Z,15.80
2023-05-19T17:28:28.270Z,15.80
2023-05-19T17:30:57.566Z,15.90
2023-05-19T17:33:25.646Z,15.90
2023-05-19T17:35:53.681Z,15.80
2023-05-19T17:38:21.681Z,15.80
2023-05-19T17:40:49.624Z,15.80
2023-05-19T17:43:17.570Z,15.70
2023-05-19T17:45:45.863Z,15.70
2023-05-19T17:48:15.196Z,15.60
2023-05-19T17:50:43.184Z,15.60
2023-05-19T17:53:11.384Z,15.60
2023-05-19T17:55:39.912Z,15.50
2023-05-19T17:58:08.530Z,15.50
2023-05-19T18:00:37.073Z,15.40
2023-05-19T18:03:06.314Z,15.40
2023-05-19T18:05:37.411Z,15.30
2023-05-19T18:08:09.131Z,15.30
2023-05-19T18:10:38.592Z,15.30
2023-05-19T18:13:06.925Z,15.20
2023-05-19T18:15:34.983Z,15.20
2023-05-19T18:18:05.544Z,15.20
2023-05-19T18:20:35.210Z,15.10
2023-05-19T18:23:03.318Z,15.10
2023-05-19T18:25:31.335Z,15.10
2023-05-19T18:27:59.319Z,15.10
2023-05-19T18:30:27.285Z,15.00
2023-05-19T18:32:55.408Z,15.00
2023-05-19T18:35:23.438Z,14.90
2023-05-19T18:37:56.258Z,14.80
2023-05-19T18:40:24.605Z,14.80
2023-05-19T18:42:52.586Z,14.70
2023-05-19T18:45:20.542Z,14.60
2023-05-19T18:47:48.811Z,14.60
2023-05-19T18:50:16.983Z,14.50
2023-05-19T18:52:44.932Z,14.40
2023-05-19T18:55:14.234Z,14.30
2023-05-19T18:57:42.194Z,14.20
2023-05-19T19:00:13.569Z,14.10
2023-05-19T19:02:41.620Z,14.00
2023-05-19T19:05:10.295Z,13.90
2023-05-19T19:07:41.086Z,13.90
2023-05-19T19:10:10.135Z,13.80
2023-05-19T19:12:39.805Z,13.70
2023-05-19T19:15:08.646Z,13.60
2023-05-19T19:17:36.910Z,13.50
2023-05-19T19:20:05.352Z,13.40
2023-05-19T19:22:33.370Z,13.30
2023-05-19T19:25:01.360Z,13.10
2023-05-19T19:27:31.042Z,13.00
2023-05-19T19:30:00.725Z,12.90
2023-05-19T19:32:28.823Z,12.80
2023-05-19T19:34:56.839Z,12.80
2023-05-19T19:37:24.855Z,12.70
2023-05-19T19:39:52.852Z,12.60
2023-05-19T19:42:20.795Z,12.60
2023-05-19T19:44:48.744Z,12.50
2023-05-19T19:47:18.040Z,12.50
2023-05-19T19:49:46.065Z,12.50
2023-05-19T19:52:14.076Z,12.50
2023-05-19T19:54:42.119Z,12.40
2023-05-19T19:57:10.122Z,12.40
2023-05-19T19:59:38.068Z,12.30
2023-05-19T20:02:06.242Z,12.30
2023-05-19T20:04:35.713Z,12.30
2023-05-19T20:07:03.765Z,12.30
2023-05-19T20:09:31.752Z,12.30
2023-05-19T20:11:59.718Z,12.20
2023-05-19T20:14:27.736Z,12.10
2023-05-19T20:16:55.731Z,12.10
2023-05-19T20:19:25.446Z,12.10
2023-05-19T20:21:54.755Z,12.10
2023-05-19T20:24:22.765Z,12.00
2023-05-19T20:26:50.803Z,12.10
2023-05-19T20:29:18.783Z,12.10
2023-05-19T20:31:46.715Z,12.00
2023-05-19T20:34:15.170Z,11.90
2023-05-19T20:36:43.178Z,11.90
2023-05-19T20:39:12.511Z,11.80
2023-05-19T20:41:40.573Z,11.80
2023-05-19T20:44:10.244Z,11.90
2023-05-19T20:46:38.308Z,11.90
2023-05-19T20:49:06.370Z,11.90
2023-05-19T20:51:34.404Z,11.90
2023-05-19T20:54:02.384Z,11.90
2023-05-19T20:56:31.687Z,11.80
2023-05-19T20:58:59.694Z,11.80
2023-05-19T21:01:29.801Z,11.70
2023-05-19T21:03:57.896Z,11.70
2023-05-19T21:06:25.942Z,11.70
2023-05-19T21:08:53.896Z,11.70
2023-05-19T21:11:21.867Z,11.70
2023-05-19T21:13:51.258Z,11.70
2023-05-19T21:16:19.290Z,11.70
2023-05-19T21:18:47.298Z,11.70
2023-05-19T21:21:15.483Z,11.80
2023-05-19T21:23:43.446Z,11.80
2023-05-19T21:26:11.439Z,11.90
2023-05-19T21:28:39.417Z,11.90
2023-05-19T21:31:08.834Z,11.90
2023-05-19T21:33:36.879Z,11.90
2023-05-19T21:36:05.089Z,11.90
2023-05-19T21:38:33.070Z,11.80
2023-05-19T21:41:01.062Z,11.80
2023-05-19T21:43:29.035Z,11.90
2023-05-19T21:45:57.088Z,11.90
2023-05-19T21:48:26.487Z,11.90
2023-05-19T21:50:56.699Z,11.90
2023-05-19T21:53:24.943Z,11.90
2023-05-19T21:55:53.065Z,12.00
2023-05-19T21:58:21.202Z,12.00
2023-05-19T22:00:50.698Z,12.00
2023-05-19T22:03:19.365Z,11.90
2023-05-19T22:05:51.844Z,11.90
2023-05-19T22:08:22.182Z,11.90
2023-05-19T22:10:51.084Z,12.00
2023-05-19T22:13:19.246Z,11.90
2023-05-19T22:15:47.504Z,11.90
2023-05-19T22:18:15.657Z,11.90
2023-05-19T22:20:43.819Z,11.90
2023-05-19T22:23:13.130Z,11.90
2023-05-19T22:25:41.519Z,11.80
2023-05-19T22:28:09.538Z,11.80
2023-05-19T22:30:41.054Z,11.80
2023-05-19T22:33:09.760Z,11.80
2023-05-19T22:35:37.911Z,11.80
2023-05-19T22:38:07.541Z,11.80
2023-05-19T22:40:38.976Z,11.70
2023-05-19T22:43:07.024Z,11.70
2023-05-19T22:45:36.688Z,11.60
2023-05-19T22:48:05.396Z,11.60
2023-05-19T22:50:33.504Z,11.60
2023-05-19T22:53:01.503Z,11.60
2023-05-19T22:55:29.485Z,11.60
2023-05-19T22:57:58.987Z,11.50
2023-05-19T23:00:26.967Z,11.50
2023-05-19T23:02:55.017Z,11.50
2023-05-19T23:05:23.001Z,11.40
2023-05-19T23:07:50.959Z,11.40
2023-05-19T23:10:19.089Z,11.30
2023-05-19T23:12:47.150Z,11.30
2023-05-19T23:15:16.452Z,11.30
2023-05-19T23:17:44.437Z,11.20
2023-05-19T23:20:14.187Z,11.30
2023-05-19T23:22:42.144Z,11.30
2023-05-19T23:25:10.474Z,11.20
2023-05-19T23:27:38.558Z,11.30
2023-05-19T23:30:08.068Z,11.20
2023-05-19T23:32:37.387Z,11.20
2023-05-19T23:35:13.049Z,11.20
2023-05-19T23:37:41.159Z,11.20
2023-05-19T23:40:09.899Z,11.20
2023-05-19T23:42:38.264Z,11.20
2023-05-19T23:45:07.237Z,11.10
2023-05-19T23:47:35.223Z,11.10
2023-05-19T23:50:04.917Z,11.10
2023-05-19T23:52:32.898Z,11.10
2023-05-19T23:55:00.972Z,11.10
2023-05-19T23:57:28.934Z,11.10
2023-05-19T23:59:56.877Z,11.10
